createdAt,value
2023-04-04T00:05:34.591Z,1766.18994
2023-04-04T00:20:36.714Z,1579.80811
2023-04-04T00:35:38.900Z,1478.37585
2023-04-04T00:50:41.271Z,1349.04968
2023-04-04T01:05:43.728Z,1186.75793
2023-04-04T01:20:45.844Z,925.56976
2023-04-04T01:35:47.964Z,665.64948
2023-04-04T01:50:50.221Z,422.21198
2023-04-04T02:05:53.421Z,216.81155
2023-04-04T02:20:55.504Z,76.07423
2023-04-04T02:35:57.679Z,15.21485
2023-04-04T02:50:59.844Z,1.2679
2023-04-04T03:06:02.061Z,0
2023-04-04T03:21:04.158Z,0
2023-04-04T03:36:06.240Z,0
2023-04-04T03:51:08.473Z,0
2023-04-04T04:06:10.601Z,0
2023-04-04T04:21:12.713Z,0
2023-04-04T04:36:14.836Z,0
2023-04-04T04:51:16.964Z,0
2023-04-04T05:06:19.062Z,0
2023-04-04T05:21:21.178Z,0
2023-04-04T05:36:23.426Z,0
2023-04-04T05:51:25.542Z,0
2023-04-04T06:06:27.656Z,0
2023-04-04T06:21:29.718Z,0
2023-04-04T06:36:31.917Z,0
2023-04-04T06:51:34.055Z,0
2023-04-04T07:06:36.136Z,0
2023-04-04T07:21:38.331Z,0
2023-04-04T07:36:40.397Z,0
2023-04-04T07:51:42.551Z,0
2023-04-04T08:06:44.696Z,0
2023-04-04T08:21:46.780Z,0
2023-04-04T08:36:48.879Z,0
2023-04-04T08:51:51.035Z,0
2023-04-04T09:06:53.281Z,0
2023-04-04T09:21:55.351Z,0
2023-04-04T09:36:57.443Z,0
2023-04-04T09:51:59.883Z,0
2023-04-04T10:07:02.020Z,0
2023-04-04T10:22:04.130Z,0
2023-04-04T10:37:06.505Z,0
2023-04-04T10:52:08.642Z,0
2023-04-04T11:07:10.736Z,0
2023-04-04T11:22:12.896Z,0
2023-04-04T11:37:15.031Z,0
2023-04-04T11:52:17.212Z,0
2023-04-04T12:07:19.345Z,0
2023-04-04T12:22:21.410Z,0
2023-04-04T12:37:23.608Z,0
2023-04-04T12:52:25.783Z,2.53581
2023-04-04T13:07:27.981Z,31.6976
2023-04-04T13:22:30.125Z,180.04234
2023-04-04T13:37:32.276Z,483.07135
2023-04-04T13:52:34.405Z,931.9093
2023-04-04T14:07:36.446Z,1387.08679
2023-04-04T14:22:38.582Z,1868.89026
2023-04-04T14:37:41.157Z,9325.43262
2023-04-04T14:52:43.264Z,18502.51953
2023-04-04T15:07:45.428Z,16740.13477
2023-04-04T15:22:47.547Z,25353.00391
2023-04-04T15:37:49.775Z,43113.80078
2023-04-04T15:52:51.989Z,7497.11523
2023-04-04T16:07:54.400Z,8000.47314
2023-04-04T16:22:56.812Z,7154.78125
2023-04-04T16:37:59.332Z,7451.4707
2023-04-04T16:53:01.608Z,11151.21387
2023-04-04T17:08:03.940Z,7848.32471
2023-04-04T17:23:06.192Z,8394.79102
2023-04-04T17:38:09.659Z,8664.85449
2023-04-04T17:53:12.617Z,8512.70605
2023-04-04T18:08:14.950Z,7732.94531
2023-04-04T18:23:17.625Z,7243.53467
2023-04-04T18:38:20.083Z,7252.40967
2023-04-04T18:53:22.389Z,7195.354
2023-04-04T19:08:24.721Z,8366.89746
2023-04-04T19:23:27.129Z,8806.85938
2023-04-04T19:38:29.378Z,8077.81494
2023-04-04T19:53:31.500Z,6021.27539
2023-04-04T20:08:33.606Z,6591.83203
2023-04-04T20:23:35.642Z,6496.73926
2023-04-04T20:38:37.772Z,7275.23193
2023-04-04T20:53:39.952Z,6192.44238
2023-04-04T21:08:42.144Z,7305.66162
2023-04-04T21:23:44.246Z,7355.10986
2023-04-04T21:38:46.570Z,8004.27686
2023-04-04T21:53:48.692Z,4291.85449
2023-04-04T22:08:50.757Z,4015.45142
2023-04-04T22:23:53.011Z,4435.12744
2023-04-04T22:38:55.103Z,4227.19141
